sensor_id;sensor_type;location;lat;lon;timestamp;P1;durP1;ratioP1;P2;durP2;ratioP2
22754;SDS011;11544;42.020;23.094;2022-08-24T00:00:59;15.30;;;8.85;;
22754;SDS011;11544;42.020;23.094;2022-08-24T00:03:25;12.88;;;7.88;;
22754;SDS011;11544;42.020;23.094;2022-08-24T00:05:51;20.10;;;9.18;;
22754;SDS011;11544;42.020;23.094;2022-08-24T00:08:18;13.18;;;8.52;;
22754;SDS011;11544;42.020;23.094;2022-08-24T00:10:44;12.88;;;7.97;;
22754;SDS011;11544;42.020;23.094;2022-08-24T00:13:10;12.68;;;8.30;;
22754;SDS011;11544;42.020;23.094;2022-08-24T00:15:37;14.13;;;8.30;;
22754;SDS011;11544;42.020;23.094;2022-08-24T00:18:03;14.73;;;8.98;;
22754;SDS011;11544;42.020;23.094;2022-08-24T00:20:30;15.55;;;7.57;;
22754;SDS011;11544;42.020;23.094;2022-08-24T00:22:56;10.40;;;7.93;;
22754;SDS011;11544;42.020;23.094;2022-08-24T00:25:22;13.82;;;8.10;;
22754;SDS011;11544;42.020;23.094;2022-08-24T00:27:49;17.10;;;8.38;;
22754;SDS011;11544;42.020;23.094;2022-08-24T00:30:16;10.95;;;8.18;;
22754;SDS011;11544;42.020;23.094;2022-08-24T00:32:44;12.27;;;8.00;;
22754;SDS011;11544;42.020;23.094;2022-08-24T00:35:11;14.50;;;8.18;;
22754;SDS011;11544;42.020;23.094;2022-08-24T00:37:39;13.50;;;9.50;;
22754;SDS011;11544;42.020;23.094;2022-08-24T00:40:10;19.27;;;8.88;;
22754;SDS011;11544;42.020;23.094;2022-08-24T00:42:39;12.50;;;8.07;;
22754;SDS011;11544;42.020;23.094;2022-08-24T00:45:06;10.77;;;8.45;;
22754;SDS011;11544;42.020;23.094;2022-08-24T00:47:38;12.10;;;8.73;;
22754;SDS011;11544;42.020;23.094;2022-08-24T00:50:12;12.65;;;8.13;;
22754;SDS011;11544;42.020;23.094;2022-08-24T00:52:55;10.75;;;7.90;;
22754;SDS011;11544;42.020;23.094;2022-08-24T00:55:31;11.80;;;7.85;;
22754;SDS011;11544;42.020;23.094;2022-08-24T00:58:03;12.40;;;9.02;;
22754;SDS011;11544;42.020;23.094;2022-08-24T01:00:34;15.43;;;8.63;;
22754;SDS011;11544;42.020;23.094;2022-08-24T01:03:04;13.57;;;8.23;;
22754;SDS011;11544;42.020;23.094;2022-08-24T01:05:31;14.00;;;9.13;;
22754;SDS011;11544;42.020;23.094;2022-08-24T01:08:00;18.00;;;9.02;;
22754;SDS011;11544;42.020;23.094;2022-08-24T01:10:30;12.52;;;7.90;;
22754;SDS011;11544;42.020;23.094;2022-08-24T01:13:00;13.73;;;8.20;;
22754;SDS011;11544;42.020;23.094;2022-08-24T01:15:32;11.52;;;8.65;;
22754;SDS011;11544;42.020;23.094;2022-08-24T01:18:00;20.15;;;9.13;;
22754;SDS011;11544;42.020;23.094;2022-08-24T01:20:51;16.75;;;8.40;;
22754;SDS011;11544;42.020;23.094;2022-08-24T01:26:04;17.80;;;8.98;;
22754;SDS011;11544;42.020;23.094;2022-08-24T01:28:32;14.02;;;8.68;;
22754;SDS011;11544;42.020;23.094;2022-08-24T01:31:00;14.13;;;8.63;;
22754;SDS011;11544;42.020;23.094;2022-08-24T01:33:28;9.77;;;8.40;;
22754;SDS011;11544;42.020;23.094;2022-08-24T01:36:00;16.77;;;9.35;;
22754;SDS011;11544;42.020;23.094;2022-08-24T01:38:30;14.80;;;9.40;;
22754;SDS011;11544;42.020;23.094;2022-08-24T01:40:58;9.70;;;7.65;;
22754;SDS011;11544;42.020;23.094;2022-08-24T01:43:27;10.57;;;8.93;;
22754;SDS011;11544;42.020;23.094;2022-08-24T01:45:53;18.52;;;9.48;;
22754;SDS011;11544;42.020;23.094;2022-08-24T01:48:19;14.75;;;8.48;;
22754;SDS011;11544;42.020;23.094;2022-08-24T01:50:46;11.48;;;9.05;;
22754;SDS011;11544;42.020;23.094;2022-08-24T01:53:12;12.32;;;8.48;;
22754;SDS011;11544;42.020;23.094;2022-08-24T01:55:38;14.90;;;9.25;;
22754;SDS011;11544;42.020;23.094;2022-08-24T01:58:05;12.77;;;9.52;;
22754;SDS011;11544;42.020;23.094;2022-08-24T02:00:31;9.73;;;8.70;;
22754;SDS011;11544;42.020;23.094;2022-08-24T02:02:58;13.68;;;10.13;;
22754;SDS011;11544;42.020;23.094;2022-08-24T02:05:24;11.48;;;8.73;;
22754;SDS011;11544;42.020;23.094;2022-08-24T02:07:50;12.65;;;8.82;;
22754;SDS011;11544;42.020;23.094;2022-08-24T02:10:19;16.38;;;9.32;;
22754;SDS011;11544;42.020;23.094;2022-08-24T02:12:48;14.13;;;8.52;;
22754;SDS011;11544;42.020;23.094;2022-08-24T02:15:30;11.25;;;9.23;;
22754;SDS011;11544;42.020;23.094;2022-08-24T02:17:58;14.23;;;8.98;;
22754;SDS011;11544;42.020;23.094;2022-08-24T02:20:25;16.13;;;9.05;;
22754;SDS011;11544;42.020;23.094;2022-08-24T02:22:52;13.95;;;9.35;;
22754;SDS011;11544;42.020;23.094;2022-08-24T02:25:19;18.17;;;9.50;;
22754;SDS011;11544;42.020;23.094;2022-08-24T02:27:46;12.88;;;8.77;;
22754;SDS011;11544;42.020;23.094;2022-08-24T02:30:12;13.98;;;9.93;;
22754;SDS011;11544;42.020;23.094;2022-08-24T02:32:39;13.18;;;8.73;;
22754;SDS011;11544;42.020;23.094;2022-08-24T02:35:05;13.07;;;8.23;;
22754;SDS011;11544;42.020;23.094;2022-08-24T02:37:31;18.00;;;10.15;;
22754;SDS011;11544;42.020;23.094;2022-08-24T02:39:57;13.35;;;9.75;;
22754;SDS011;11544;42.020;23.094;2022-08-24T02:42:24;17.48;;;8.95;;
22754;SDS011;11544;42.020;23.094;2022-08-24T02:44:53;17.55;;;9.55;;
22754;SDS011;11544;42.020;23.094;2022-08-24T02:47:19;14.23;;;8.52;;
22754;SDS011;11544;42.020;23.094;2022-08-24T02:49:45;12.95;;;8.68;;
22754;SDS011;11544;42.020;23.094;2022-08-24T02:52:13;13.02;;;9.23;;
22754;SDS011;11544;42.020;23.094;2022-08-24T02:54:39;14.07;;;8.55;;
22754;SDS011;11544;42.020;23.094;2022-08-24T02:57:06;11.38;;;8.57;;
22754;SDS011;11544;42.020;23.094;2022-08-24T02:59:32;14.68;;;8.82;;
22754;SDS011;11544;42.020;23.094;2022-08-24T03:01:58;12.13;;;8.90;;
22754;SDS011;11544;42.020;23.094;2022-08-24T03:04:23;12.68;;;9.02;;
22754;SDS011;11544;42.020;23.094;2022-08-24T03:06:50;12.82;;;9.15;;
22754;SDS011;11544;42.020;23.094;2022-08-24T03:09:16;17.05;;;8.95;;
22754;SDS011;11544;42.020;23.094;2022-08-24T03:11:42;13.70;;;9.18;;
22754;SDS011;11544;42.020;23.094;2022-08-24T03:14:08;15.43;;;9.45;;
22754;SDS011;11544;42.020;23.094;2022-08-24T03:16:34;18.63;;;9.00;;
22754;SDS011;11544;42.020;23.094;2022-08-24T03:19:01;13.25;;;9.02;;
22754;SDS011;11544;42.020;23.094;2022-08-24T03:21:30;14.60;;;9.73;;
22754;SDS011;11544;42.020;23.094;2022-08-24T03:23:57;13.57;;;9.00;;
22754;SDS011;11544;42.020;23.094;2022-08-24T03:26:24;12.90;;;8.68;;
22754;SDS011;11544;42.020;23.094;2022-08-24T03:28:49;19.77;;;10.07;;
22754;SDS011;11544;42.020;23.094;2022-08-24T03:31:16;12.82;;;9.57;;
22754;SDS011;11544;42.020;23.094;2022-08-24T03:33:43;15.02;;;9.50;;
22754;SDS011;11544;42.020;23.094;2022-08-24T03:36:08;13.23;;;9.38;;
22754;SDS011;11544;42.020;23.094;2022-08-24T03:38:35;12.07;;;8.68;;
22754;SDS011;11544;42.020;23.094;2022-08-24T03:41:01;14.27;;;9.40;;
22754;SDS011;11544;42.020;23.094;2022-08-24T03:43:26;14.38;;;10.38;;
22754;SDS011;11544;42.020;23.094;2022-08-24T03:46:12;12.45;;;9.35;;
22754;SDS011;11544;42.020;23.094;2022-08-24T03:48:40;13.93;;;9.60;;
22754;SDS011;11544;42.020;23.094;2022-08-24T03:51:13;17.60;;;10.18;;
22754;SDS011;11544;42.020;23.094;2022-08-24T03:53:40;12.15;;;9.10;;
22754;SDS011;11544;42.020;23.094;2022-08-24T03:56:07;16.25;;;10.35;;
22754;SDS011;11544;42.020;23.094;2022-08-24T03:58:37;17.92;;;10.15;;
22754;SDS011;11544;42.020;23.094;2022-08-24T04:01:06;13.35;;;9.52;;
22754;SDS011;11544;42.020;23.094;2022-08-24T04:03:36;19.02;;;9.38;;
22754;SDS011;11544;42.020;23.094;2022-08-24T04:06:05;15.95;;;10.15;;
22754;SDS011;11544;42.020;23.094;2022-08-24T04:08:32;17.08;;;10.00;;
22754;SDS011;11544;42.020;23.094;2022-08-24T04:11:00;13.75;;;9.85;;
22754;SDS011;11544;42.020;23.094;2022-08-24T04:13:27;11.98;;;9.20;;
22754;SDS011;11544;42.020;23.094;2022-08-24T04:15:56;15.88;;;9.82;;
22754;SDS011;11544;42.020;23.094;2022-08-24T04:18:23;15.77;;;10.20;;
22754;SDS011;11544;42.020;23.094;2022-08-24T04:20:49;15.70;;;10.43;;
22754;SDS011;11544;42.020;23.094;2022-08-24T04:23:16;16.63;;;9.63;;
22754;SDS011;11544;42.020;23.094;2022-08-24T04:25:44;15.57;;;10.27;;
22754;SDS011;11544;42.020;23.094;2022-08-24T04:28:18;15.40;;;9.32;;
22754;SDS011;11544;42.020;23.094;2022-08-24T04:30:46;13.65;;;9.30;;
22754;SDS011;11544;42.020;23.094;2022-08-24T04:33:23;16.92;;;10.18;;
22754;SDS011;11544;42.020;23.094;2022-08-24T04:35:49;12.43;;;9.52;;
22754;SDS011;11544;42.020;23.094;2022-08-24T04:38:15;12.18;;;9.05;;
22754;SDS011;11544;42.020;23.094;2022-08-24T04:40:56;15.48;;;9.55;;
22754;SDS011;11544;42.020;23.094;2022-08-24T04:43:22;17.45;;;9.13;;
22754;SDS011;11544;42.020;23.094;2022-08-24T04:45:50;12.90;;;9.85;;
22754;SDS011;11544;42.020;23.094;2022-08-24T04:48:23;20.17;;;10.00;;
22754;SDS011;11544;42.020;23.094;2022-08-24T04:50:49;21.20;;;10.07;;
22754;SDS011;11544;42.020;23.094;2022-08-24T04:53:15;13.88;;;9.75;;
22754;SDS011;11544;42.020;23.094;2022-08-24T04:55:49;13.45;;;10.18;;
22754;SDS011;11544;42.020;23.094;2022-08-24T04:58:16;18.52;;;10.75;;
22754;SDS011;11544;42.020;23.094;2022-08-24T05:00:46;13.07;;;9.73;;
22754;SDS011;11544;42.020;23.094;2022-08-24T05:03:12;12.05;;;10.07;;
22754;SDS011;11544;42.020;23.094;2022-08-24T05:05:39;11.75;;;10.07;;
22754;SDS011;11544;42.020;23.094;2022-08-24T05:08:10;13.35;;;10.00;;
22754;SDS011;11544;42.020;23.094;2022-08-24T05:10:38;14.05;;;9.63;;
22754;SDS011;11544;42.020;23.094;2022-08-24T05:13:06;11.25;;;9.68;;
22754;SDS011;11544;42.020;23.094;2022-08-24T05:15:35;18.45;;;10.77;;
22754;SDS011;11544;42.020;23.094;2022-08-24T05:18:09;16.80;;;10.45;;
22754;SDS011;11544;42.020;23.094;2022-08-24T05:20:40;13.40;;;9.85;;
22754;SDS011;11544;42.020;23.094;2022-08-24T05:23:14;14.00;;;9.48;;
22754;SDS011;11544;42.020;23.094;2022-08-24T05:25:40;15.13;;;9.60;;
22754;SDS011;11544;42.020;23.094;2022-08-24T05:28:07;18.75;;;10.05;;
22754;SDS011;11544;42.020;23.094;2022-08-24T05:30:33;20.65;;;10.02;;
22754;SDS011;11544;42.020;23.094;2022-08-24T05:33:00;14.57;;;9.52;;
22754;SDS011;11544;42.020;23.094;2022-08-24T05:35:26;19.27;;;10.02;;
22754;SDS011;11544;42.020;23.094;2022-08-24T05:37:57;14.38;;;9.68;;
22754;SDS011;11544;42.020;23.094;2022-08-24T05:40:31;15.60;;;9.95;;
22754;SDS011;11544;42.020;23.094;2022-08-24T05:42:59;15.57;;;10.10;;
22754;SDS011;11544;42.020;23.094;2022-08-24T05:45:25;14.00;;;9.80;;
22754;SDS011;11544;42.020;23.094;2022-08-24T05:47:51;17.02;;;9.02;;
22754;SDS011;11544;42.020;23.094;2022-08-24T05:50:40;17.75;;;9.95;;
22754;SDS011;11544;42.020;23.094;2022-08-24T05:53:07;11.90;;;9.65;;
22754;SDS011;11544;42.020;23.094;2022-08-24T05:55:36;14.38;;;9.25;;
22754;SDS011;11544;42.020;23.094;2022-08-24T05:58:05;17.88;;;9.70;;
22754;SDS011;11544;42.020;23.094;2022-08-24T06:00:31;15.82;;;9.85;;
22754;SDS011;11544;42.020;23.094;2022-08-24T06:02:58;10.30;;;9.20;;
22754;SDS011;11544;42.020;23.094;2022-08-24T06:05:25;15.10;;;9.27;;
22754;SDS011;11544;42.020;23.094;2022-08-24T06:07:51;15.60;;;8.80;;
22754;SDS011;11544;42.020;23.094;2022-08-24T06:10:18;16.35;;;9.00;;
22754;SDS011;11544;42.020;23.094;2022-08-24T06:12:45;21.83;;;9.95;;
22754;SDS011;11544;42.020;23.094;2022-08-24T06:15:11;13.57;;;8.82;;
22754;SDS011;11544;42.020;23.094;2022-08-24T06:20:24;22.63;;;11.30;;
22754;SDS011;11544;42.020;23.094;2022-08-24T06:22:53;22.85;;;10.02;;
22754;SDS011;11544;42.020;23.094;2022-08-24T06:25:29;24.15;;;9.65;;
22754;SDS011;11544;42.020;23.094;2022-08-24T06:28:18;17.63;;;9.50;;
22754;SDS011;11544;42.020;23.094;2022-08-24T06:30:44;21.75;;;10.20;;
22754;SDS011;11544;42.020;23.094;2022-08-24T06:33:18;25.52;;;10.27;;
22754;SDS011;11544;42.020;23.094;2022-08-24T06:36:04;15.60;;;9.73;;
22754;SDS011;11544;42.020;23.094;2022-08-24T06:38:59;19.83;;;9.60;;
22754;SDS011;11544;42.020;23.094;2022-08-24T06:41:25;18.20;;;8.98;;
22754;SDS011;11544;42.020;23.094;2022-08-24T06:43:51;15.18;;;9.70;;
22754;SDS011;11544;42.020;23.094;2022-08-24T06:46:26;13.38;;;10.05;;
22754;SDS011;11544;42.020;23.094;2022-08-24T06:49:10;14.07;;;10.02;;
22754;SDS011;11544;42.020;23.094;2022-08-24T06:51:36;15.60;;;9.98;;
22754;SDS011;11544;42.020;23.094;2022-08-24T06:54:04;17.48;;;10.25;;
22754;SDS011;11544;42.020;23.094;2022-08-24T06:56:30;13.13;;;9.93;;
22754;SDS011;11544;42.020;23.094;2022-08-24T06:58:56;17.30;;;10.10;;
22754;SDS011;11544;42.020;23.094;2022-08-24T07:01:33;20.10;;;9.95;;
22754;SDS011;11544;42.020;23.094;2022-08-24T07:03:59;10.82;;;9.18;;
22754;SDS011;11544;42.020;23.094;2022-08-24T07:06:44;16.77;;;9.40;;
22754;SDS011;11544;42.020;23.094;2022-08-24T07:09:10;18.05;;;9.68;;
22754;SDS011;11544;42.020;23.094;2022-08-24T07:11:37;17.10;;;9.57;;
22754;SDS011;11544;42.020;23.094;2022-08-24T07:14:03;10.60;;;8.80;;
22754;SDS011;11544;42.020;23.094;2022-08-24T07:16:29;22.05;;;9.15;;
22754;SDS011;11544;42.020;23.094;2022-08-24T07:19:03;17.05;;;9.15;;
22754;SDS011;11544;42.020;23.094;2022-08-24T07:21:41;12.23;;;9.02;;
22754;SDS011;11544;42.020;23.094;2022-08-24T07:24:10;11.02;;;8.98;;
22754;SDS011;11544;42.020;23.094;2022-08-24T07:26:37;15.02;;;8.30;;
22754;SDS011;11544;42.020;23.094;2022-08-24T07:29:22;9.95;;;8.40;;
22754;SDS011;11544;42.020;23.094;2022-08-24T07:31:53;8.68;;;7.70;;
22754;SDS011;11544;42.020;23.094;2022-08-24T07:34:38;10.35;;;7.55;;
22754;SDS011;11544;42.020;23.094;2022-08-24T07:37:17;8.45;;;7.18;;
22754;SDS011;11544;42.020;23.094;2022-08-24T07:39:47;12.88;;;7.68;;
22754;SDS011;11544;42.020;23.094;2022-08-24T07:42:15;8.98;;;6.90;;
22754;SDS011;11544;42.020;23.094;2022-08-24T07:44:41;13.95;;;8.77;;
22754;SDS011;11544;42.020;23.094;2022-08-24T07:47:08;8.88;;;7.53;;
22754;SDS011;11544;42.020;23.094;2022-08-24T07:49:34;11.75;;;6.95;;
22754;SDS011;11544;42.020;23.094;2022-08-24T07:52:01;9.88;;;6.95;;
22754;SDS011;11544;42.020;23.094;2022-08-24T07:54:40;10.68;;;6.82;;
22754;SDS011;11544;42.020;23.094;2022-08-24T07:57:11;10.10;;;6.35;;
22754;SDS011;11544;42.020;23.094;2022-08-24T07:59:37;13.88;;;6.82;;
22754;SDS011;11544;42.020;23.094;2022-08-24T08:02:10;13.90;;;7.03;;
22754;SDS011;11544;42.020;23.094;2022-08-24T08:04:36;9.90;;;5.53;;
22754;SDS011;11544;42.020;23.094;2022-08-24T08:07:02;9.75;;;6.40;;
22754;SDS011;11544;42.020;23.094;2022-08-24T08:09:40;15.20;;;6.45;;
22754;SDS011;11544;42.020;23.094;2022-08-24T08:12:09;10.43;;;6.28;;
22754;SDS011;11544;42.020;23.094;2022-08-24T08:14:43;8.35;;;6.07;;
22754;SDS011;11544;42.020;23.094;2022-08-24T08:17:13;17.92;;;6.40;;
22754;SDS011;11544;42.020;23.094;2022-08-24T08:19:39;8.93;;;5.80;;
22754;SDS011;11544;42.020;23.094;2022-08-24T08:22:14;6.53;;;5.75;;
22754;SDS011;11544;42.020;23.094;2022-08-24T08:25:30;8.43;;;6.50;;
22754;SDS011;11544;42.020;23.094;2022-08-24T08:27:59;7.15;;;5.70;;
22754;SDS011;11544;42.020;23.094;2022-08-24T08:30:25;8.27;;;5.70;;
22754;SDS011;11544;42.020;23.094;2022-08-24T08:32:53;9.30;;;6.32;;
22754;SDS011;11544;42.020;23.094;2022-08-24T08:35:31;10.93;;;5.70;;
22754;SDS011;11544;42.020;23.094;2022-08-24T08:37:58;8.55;;;5.55;;
22754;SDS011;11544;42.020;23.094;2022-08-24T08:50:16;6.97;;;5.20;;
22754;SDS011;11544;42.020;23.094;2022-08-24T08:56:08;7.25;;;5.32;;
22754;SDS011;11544;42.020;23.094;2022-08-24T09:24:19;6.40;;;4.68;;
22754;SDS011;11544;42.020;23.094;2022-08-24T09:58:22;6.53;;;5.78;;
22754;SDS011;11544;42.020;23.094;2022-08-24T10:01:24;8.02;;;5.22;;
22754;SDS011;11544;42.020;23.094;2022-08-24T10:17:57;6.68;;;5.88;;
22754;SDS011;11544;42.020;23.094;2022-08-24T10:23:53;6.57;;;5.00;;
22754;SDS011;11544;42.020;23.094;2022-08-24T10:35:16;7.78;;;5.30;;
22754;SDS011;11544;42.020;23.094;2022-08-24T10:44:41;7.15;;;5.75;;
22754;SDS011;11544;42.020;23.094;2022-08-24T10:55:09;6.93;;;4.72;;
22754;SDS011;11544;42.020;23.094;2022-08-24T11:00:26;9.02;;;5.65;;
22754;SDS011;11544;42.020;23.094;2022-08-24T11:03:08;5.40;;;4.90;;
22754;SDS011;11544;42.020;23.094;2022-08-24T11:05:46;8.77;;;4.88;;
22754;SDS011;11544;42.020;23.094;2022-08-24T11:08:20;5.07;;;4.53;;
22754;SDS011;11544;42.020;23.094;2022-08-24T11:11:09;5.05;;;4.57;;
22754;SDS011;11544;42.020;23.094;2022-08-24T11:13:49;8.38;;;4.95;;
22754;SDS011;11544;42.020;23.094;2022-08-24T11:16:22;4.95;;;4.40;;
22754;SDS011;11544;42.020;23.094;2022-08-24T11:18:56;7.00;;;4.25;;
22754;SDS011;11544;42.020;23.094;2022-08-24T11:21:31;6.28;;;4.80;;
22754;SDS011;11544;42.020;23.094;2022-08-24T11:24:25;6.53;;;4.60;;
22754;SDS011;11544;42.020;23.094;2022-08-24T11:27:00;6.55;;;4.72;;
22754;SDS011;11544;42.020;23.094;2022-08-24T11:30:20;6.82;;;4.35;;
22754;SDS011;11544;42.020;23.094;2022-08-24T11:38:21;6.65;;;4.38;;
22754;SDS011;11544;42.020;23.094;2022-08-24T11:43:34;7.95;;;4.50;;
22754;SDS011;11544;42.020;23.094;2022-08-24T11:46:36;7.40;;;4.57;;
22754;SDS011;11544;42.020;23.094;2022-08-24T11:49:13;11.27;;;4.90;;
22754;SDS011;11544;42.020;23.094;2022-08-24T11:54:42;6.80;;;4.40;;
22754;SDS011;11544;42.020;23.094;2022-08-24T11:57:20;5.78;;;4.70;;
22754;SDS011;11544;42.020;23.094;2022-08-24T12:00:29;7.20;;;4.65;;
22754;SDS011;11544;42.020;23.094;2022-08-24T12:06:09;6.13;;;4.95;;
22754;SDS011;11544;42.020;23.094;2022-08-24T12:08:38;8.60;;;5.53;;
22754;SDS011;11544;42.020;23.094;2022-08-24T12:13:56;6.93;;;4.90;;
22754;SDS011;11544;42.020;23.094;2022-08-24T12:19:18;8.88;;;5.45;;
22754;SDS011;11544;42.020;23.094;2022-08-24T12:21:52;8.05;;;4.68;;
22754;SDS011;11544;42.020;23.094;2022-08-24T12:26:53;5.88;;;4.75;;
22754;SDS011;11544;42.020;23.094;2022-08-24T12:29:33;7.53;;;4.70;;
22754;SDS011;11544;42.020;23.094;2022-08-24T12:35:06;8.23;;;4.57;;
22754;SDS011;11544;42.020;23.094;2022-08-24T12:40:22;4.80;;;4.40;;
22754;SDS011;11544;42.020;23.094;2022-08-24T12:45:28;12.00;;;4.78;;
22754;SDS011;11544;42.020;23.094;2022-08-24T12:48:15;7.93;;;4.05;;
22754;SDS011;11544;42.020;23.094;2022-08-24T12:58:48;6.43;;;3.90;;
22754;SDS011;11544;42.020;23.094;2022-08-24T13:01:30;9.05;;;4.75;;
22754;SDS011;11544;42.020;23.094;2022-08-24T13:07:00;7.05;;;4.38;;
22754;SDS011;11544;42.020;23.094;2022-08-24T13:11:59;7.85;;;5.70;;
22754;SDS011;11544;42.020;23.094;2022-08-24T13:51:13;7.43;;;5.13;;
22754;SDS011;11544;42.020;23.094;2022-08-24T14:07:53;8.60;;;5.13;;
22754;SDS011;11544;42.020;23.094;2022-08-24T14:13:29;12.00;;;5.30;;
22754;SDS011;11544;42.020;23.094;2022-08-24T14:21:34;11.65;;;5.53;;
22754;SDS011;11544;42.020;23.094;2022-08-24T14:24:06;7.68;;;4.95;;
22754;SDS011;11544;42.020;23.094;2022-08-24T14:29:24;9.40;;;5.57;;
22754;SDS011;11544;42.020;23.094;2022-08-24T14:34:27;8.38;;;5.07;;
22754;SDS011;11544;42.020;23.094;2022-08-24T14:37:10;12.25;;;5.00;;
22754;SDS011;11544;42.020;23.094;2022-08-24T14:42:57;7.18;;;5.28;;
22754;SDS011;11544;42.020;23.094;2022-08-24T14:48:32;17.10;;;6.38;;
22754;SDS011;11544;42.020;23.094;2022-08-24T15:00:20;13.60;;;7.22;;
22754;SDS011;11544;42.020;23.094;2022-08-24T15:10:35;9.40;;;6.43;;
22754;SDS011;11544;42.020;23.094;2022-08-24T15:13:26;10.63;;;6.30;;
22754;SDS011;11544;42.020;23.094;2022-08-24T15:21:46;11.32;;;6.63;;
22754;SDS011;11544;42.020;23.094;2022-08-24T15:27:01;14.05;;;7.88;;
22754;SDS011;11544;42.020;23.094;2022-08-24T15:29:45;11.02;;;7.82;;
22754;SDS011;11544;42.020;23.094;2022-08-24T15:32:43;15.23;;;7.90;;
22754;SDS011;11544;42.020;23.094;2022-08-24T15:35:36;16.25;;;8.43;;
22754;SDS011;11544;42.020;23.094;2022-08-24T15:46:47;21.88;;;8.50;;
22754;SDS011;11544;42.020;23.094;2022-08-24T15:49:19;16.05;;;7.97;;
22754;SDS011;11544;42.020;23.094;2022-08-24T16:01:40;12.68;;;7.10;;
22754;SDS011;11544;42.020;23.094;2022-08-24T16:11:20;15.45;;;7.65;;
22754;SDS011;11544;42.020;23.094;2022-08-24T16:14:18;13.40;;;7.72;;
22754;SDS011;11544;42.020;23.094;2022-08-24T16:26:31;11.60;;;7.28;;
22754;SDS011;11544;42.020;23.094;2022-08-24T16:32:35;16.30;;;7.18;;
22754;SDS011;11544;42.020;23.094;2022-08-24T16:35:32;16.63;;;8.07;;
22754;SDS011;11544;42.020;23.094;2022-08-24T16:38:00;13.68;;;8.40;;
22754;SDS011;11544;42.020;23.094;2022-08-24T16:43:46;15.77;;;7.93;;
22754;SDS011;11544;42.020;23.094;2022-08-24T16:46:17;14.15;;;7.93;;
22754;SDS011;11544;42.020;23.094;2022-08-24T16:48:50;14.90;;;7.57;;
22754;SDS011;11544;42.020;23.094;2022-08-24T16:54:07;16.17;;;8.38;;
22754;SDS011;11544;42.020;23.094;2022-08-24T16:56:35;16.00;;;9.30;;
22754;SDS011;11544;42.020;23.094;2022-08-24T16:59:02;15.75;;;8.98;;
22754;SDS011;11544;42.020;23.094;2022-08-24T17:01:28;16.10;;;9.35;;
22754;SDS011;11544;42.020;23.094;2022-08-24T17:04:08;16.00;;;9.48;;
22754;SDS011;11544;42.020;23.094;2022-08-24T17:06:34;14.85;;;9.30;;
22754;SDS011;11544;42.020;23.094;2022-08-24T17:09:00;16.00;;;9.90;;
22754;SDS011;11544;42.020;23.094;2022-08-24T17:11:26;19.80;;;10.68;;
22754;SDS011;11544;42.020;23.094;2022-08-24T17:13:52;17.30;;;11.00;;
22754;SDS011;11544;42.020;23.094;2022-08-24T17:16:21;16.73;;;10.73;;
22754;SDS011;11544;42.020;23.094;2022-08-24T17:19:00;17.67;;;10.93;;
22754;SDS011;11544;42.020;23.094;2022-08-24T17:21:35;16.15;;;10.07;;
22754;SDS011;11544;42.020;23.094;2022-08-24T17:24:01;13.30;;;9.10;;
22754;SDS011;11544;42.020;23.094;2022-08-24T17:26:27;16.60;;;10.20;;
22754;SDS011;11544;42.020;23.094;2022-08-24T17:29:02;17.30;;;9.75;;
22754;SDS011;11544;42.020;23.094;2022-08-24T17:31:31;15.60;;;9.90;;
22754;SDS011;11544;42.020;23.094;2022-08-24T17:33:58;20.00;;;10.25;;
22754;SDS011;11544;42.020;23.094;2022-08-24T17:36:24;16.25;;;10.48;;
22754;SDS011;11544;42.020;23.094;2022-08-24T17:39:12;19.60;;;10.80;;
22754;SDS011;11544;42.020;23.094;2022-08-24T17:42:16;17.27;;;9.75;;
22754;SDS011;11544;42.020;23.094;2022-08-24T17:45:08;12.00;;;9.55;;
22754;SDS011;11544;42.020;23.094;2022-08-24T17:50:50;16.63;;;9.98;;
22754;SDS011;11544;42.020;23.094;2022-08-24T17:53:57;18.20;;;9.63;;
22754;SDS011;11544;42.020;23.094;2022-08-24T17:56:35;21.17;;;9.35;;
22754;SDS011;11544;42.020;23.094;2022-08-24T18:00:03;17.17;;;9.98;;
22754;SDS011;11544;42.020;23.094;2022-08-24T18:02:41;17.00;;;9.50;;
22754;SDS011;11544;42.020;23.094;2022-08-24T18:05:19;14.43;;;9.57;;
22754;SDS011;11544;42.020;23.094;2022-08-24T18:07:47;16.10;;;9.48;;
22754;SDS011;11544;42.020;23.094;2022-08-24T18:10:18;13.00;;;9.57;;
22754;SDS011;11544;42.020;23.094;2022-08-24T18:13:00;14.95;;;10.23;;
22754;SDS011;11544;42.020;23.094;2022-08-24T18:15:39;13.93;;;9.80;;
22754;SDS011;11544;42.020;23.094;2022-08-24T18:18:06;19.38;;;10.20;;
22754;SDS011;11544;42.020;23.094;2022-08-24T18:20:36;15.48;;;9.45;;
22754;SDS011;11544;42.020;23.094;2022-08-24T18:23:05;17.23;;;9.75;;
22754;SDS011;11544;42.020;23.094;2022-08-24T18:25:32;15.07;;;9.65;;
22754;SDS011;11544;42.020;23.094;2022-08-24T18:28:03;14.63;;;9.80;;
22754;SDS011;11544;42.020;23.094;2022-08-24T18:30:30;16.73;;;9.93;;
22754;SDS011;11544;42.020;23.094;2022-08-24T18:32:56;17.83;;;10.40;;
22754;SDS011;11544;42.020;23.094;2022-08-24T18:35:25;17.23;;;9.70;;
22754;SDS011;11544;42.020;23.094;2022-08-24T18:37:52;22.23;;;9.30;;
22754;SDS011;11544;42.020;23.094;2022-08-24T18:40:23;14.05;;;9.23;;
22754;SDS011;11544;42.020;23.094;2022-08-24T18:42:50;17.27;;;9.43;;
22754;SDS011;11544;42.020;23.094;2022-08-24T18:45:17;13.45;;;9.77;;
22754;SDS011;11544;42.020;23.094;2022-08-24T18:47:43;17.77;;;9.85;;
22754;SDS011;11544;42.020;23.094;2022-08-24T18:50:18;14.45;;;8.85;;
22754;SDS011;11544;42.020;23.094;2022-08-24T18:52:44;16.65;;;10.10;;
22754;SDS011;11544;42.020;23.094;2022-08-24T18:55:10;16.48;;;10.05;;
22754;SDS011;11544;42.020;23.094;2022-08-24T19:00:22;17.40;;;8.90;;
22754;SDS011;11544;42.020;23.094;2022-08-24T19:02:48;14.35;;;8.80;;
22754;SDS011;11544;42.020;23.094;2022-08-24T19:05:19;13.13;;;9.07;;
22754;SDS011;11544;42.020;23.094;2022-08-24T19:07:49;10.38;;;7.97;;
22754;SDS011;11544;42.020;23.094;2022-08-24T19:10:17;13.50;;;8.50;;
22754;SDS011;11544;42.020;23.094;2022-08-24T19:12:47;14.23;;;8.23;;
22754;SDS011;11544;42.020;23.094;2022-08-24T19:15:16;16.55;;;8.70;;
22754;SDS011;11544;42.020;23.094;2022-08-24T19:17:42;14.93;;;9.07;;
22754;SDS011;11544;42.020;23.094;2022-08-24T19:20:11;14.48;;;8.65;;
22754;SDS011;11544;42.020;23.094;2022-08-24T19:22:37;13.63;;;8.95;;
22754;SDS011;11544;42.020;23.094;2022-08-24T19:25:05;12.32;;;8.88;;
22754;SDS011;11544;42.020;23.094;2022-08-24T19:27:32;17.67;;;8.30;;
22754;SDS011;11544;42.020;23.094;2022-08-24T19:29:58;12.35;;;8.82;;
22754;SDS011;11544;42.020;23.094;2022-08-24T19:32:25;13.20;;;8.38;;
22754;SDS011;11544;42.020;23.094;2022-08-24T19:34:53;11.52;;;8.43;;
22754;SDS011;11544;42.020;23.094;2022-08-24T19:37:20;11.95;;;8.73;;
22754;SDS011;11544;42.020;23.094;2022-08-24T19:39:46;14.65;;;8.52;;
22754;SDS011;11544;42.020;23.094;2022-08-24T19:42:13;12.77;;;9.18;;
22754;SDS011;11544;42.020;23.094;2022-08-24T19:44:40;13.65;;;9.07;;
22754;SDS011;11544;42.020;23.094;2022-08-24T19:47:25;15.35;;;9.80;;
22754;SDS011;11544;42.020;23.094;2022-08-24T19:49:51;14.40;;;9.60;;
22754;SDS011;11544;42.020;23.094;2022-08-24T19:52:16;13.13;;;9.32;;
22754;SDS011;11544;42.020;23.094;2022-08-24T19:54:44;13.70;;;8.98;;
22754;SDS011;11544;42.020;23.094;2022-08-24T20:00:04;14.75;;;8.18;;
22754;SDS011;11544;42.020;23.094;2022-08-24T20:02:47;15.15;;;8.60;;